createdAt,value
2022-08-05T14:30:59.100Z,2.60
2022-08-05T14:33:32.596Z,2.83
2022-08-05T14:36:21.817Z,3.20
2022-08-05T14:38:54.214Z,3.50
2022-08-05T14:41:25.393Z,2.97
2022-08-05T14:44:09.721Z,2.78
2022-08-05T14:46:48.884Z,3.67
2022-08-05T14:49:19.138Z,2.70
2022-08-05T14:51:49.385Z,3.35
2022-08-05T14:54:29.691Z,3.13
2022-08-05T14:57:05.396Z,2.97
2022-08-05T14:59:39.977Z,3.40
2022-08-05T15:02:15.837Z,3.40
2022-08-05T15:04:49.891Z,3.55
2022-08-05T15:08:12.106Z,3.97
2022-08-05T15:10:11.288Z,3.05
2022-08-05T15:12:59.817Z,3.20
2022-08-05T15:15:55.585Z,3.05
2022-08-05T15:18:21.882Z,3.55
2022-08-05T15:20:52.266Z,3.10
2022-08-05T15:23:22.322Z,3.42
2022-08-05T15:25:56.634Z,3.17
2022-08-05T15:28:29.908Z,3.40
2022-08-05T15:31:00.290Z,2.80
2022-08-05T15:34:05.592Z,3.65
2022-08-05T15:36:25.623Z,2.92
2022-08-05T15:41:04.707Z,3.05
2022-08-05T15:41:58.235Z,3.47
2022-08-05T15:44:31.327Z,3.38
2022-08-05T15:47:03.992Z,2.83
2022-08-05T15:49:48.183Z,3.17
2022-08-05T15:52:29.338Z,3.58
2022-08-05T15:55:16.528Z,3.78
2022-08-05T15:57:48.981Z,4.53
2022-08-05T16:00:32.759Z,3.85
2022-08-05T16:03:11.253Z,3.60
2022-08-05T16:05:41.828Z,3.77
2022-08-05T16:08:11.993Z,3.80
2022-08-05T16:10:47.434Z,3.33
2022-08-05T16:15:56.779Z,3.80
2022-08-05T16:18:28.112Z,3.88
2022-08-05T16:21:03.974Z,4.18
2022-08-05T16:23:53.539Z,4.63
2022-08-05T16:26:26.474Z,4.63
2022-08-05T16:28:57.559Z,4.57
2022-08-05T16:31:56.269Z,4.72
2022-08-05T16:34:20.399Z,4.15
2022-08-05T16:36:51.294Z,4.35
2022-08-05T16:39:22.847Z,4.25
2022-08-05T16:42:18.516Z,3.95
2022-08-05T16:44:57.693Z,4.07
2022-08-05T16:47:35.732Z,4.60
2022-08-05T16:50:08.164Z,4.47
2022-08-05T16:52:38.716Z,4.78
2022-08-05T16:55:17.302Z,4.45
2022-08-05T16:57:59.857Z,4.35
2022-08-05T17:00:34.486Z,4.00
2022-08-05T17:03:15.375Z,4.30
2022-08-05T17:05:54.289Z,3.97
2022-08-05T17:08:36.458Z,4.30
2022-08-05T17:14:05.418Z,3.55
2022-08-05T17:16:40.840Z,3.88
2022-08-05T17:19:11.429Z,3.80
2022-08-05T17:21:41.689Z,3.97
2022-08-05T17:24:35.136Z,3.15
2022-08-05T17:27:12.542Z,3.78
2022-08-05T17:29:48.921Z,3.60
2022-08-05T17:32:21.523Z,3.67
2022-08-05T17:34:55.264Z,3.75
2022-08-05T17:37:40.280Z,3.30
2022-08-05T17:40:18.829Z,3.75
2022-08-05T17:42:53.969Z,3.55
2022-08-05T17:45:37.948Z,3.85
2022-08-05T17:48:10.139Z,3.53
2022-08-05T17:50:41.306Z,3.47
2022-08-05T17:53:11.691Z,3.65
2022-08-05T17:55:41.937Z,3.70
2022-08-05T17:58:16.234Z,4.30
2022-08-05T18:00:50.675Z,3.50
2022-08-05T18:03:58.974Z,4.13
2022-08-05T18:06:15.317Z,3.47
2022-08-05T18:08:52.686Z,3.60
2022-08-05T18:11:33.126Z,3.63
2022-08-05T18:14:13.452Z,3.75
2022-08-05T18:16:51.868Z,4.10
2022-08-05T18:19:25.822Z,4.13
2022-08-05T18:22:07.466Z,3.70
2022-08-05T18:24:40.430Z,4.07
2022-08-05T18:27:12.845Z,4.13
2022-08-05T18:29:54.364Z,3.88
2022-08-05T18:32:28.108Z,4.32
2022-08-05T18:35:00.589Z,4.20
2022-08-05T18:37:34.481Z,3.97
2022-08-05T18:40:34.316Z,4.35
2022-08-05T18:43:03.366Z,4.20
2022-08-05T18:45:41.511Z,4.43
2022-08-05T18:48:30.299Z,4.45
2022-08-05T18:52:05.293Z,3.80
2022-08-05T18:54:11.112Z,4.47
2022-08-05T18:59:42.966Z,3.92
2022-08-05T19:02:11.165Z,4.30
2022-08-05T19:05:02.708Z,3.92
2022-08-05T19:10:27.903Z,4.43
2022-08-05T19:12:59.637Z,4.25
2022-08-05T19:15:59.644Z,4.07
2022-08-05T19:18:23.772Z,4.18
2022-08-05T19:20:54.904Z,4.57
2022-08-05T19:24:07.090Z,4.22
2022-08-05T19:26:16.770Z,4.10
2022-08-05T19:28:46.755Z,3.95
2022-08-05T19:31:21.403Z,4.30
2022-08-05T19:33:56.829Z,4.20
2022-08-05T19:36:29.403Z,4.25
2022-08-05T19:39:01.916Z,5.22
2022-08-05T19:41:58.077Z,4.70
